createdAt,value
2017-01-17T00:00:11.870Z,19.63
2017-01-17T00:00:52.385Z,19.63
2017-01-17T00:01:32.866Z,19.74
2017-01-17T00:02:13.364Z,19.72
2017-01-17T00:02:53.854Z,19.72
2017-01-17T00:03:34.346Z,19.65
2017-01-17T00:04:14.827Z,19.68
2017-01-17T00:04:55.325Z,19.78
2017-01-17T00:05:35.806Z,19.87
2017-01-17T00:06:16.304Z,19.8
2017-01-17T00:06:56.810Z,19.68
2017-01-17T00:07:37.306Z,19.63
2017-01-17T00:08:17.816Z,19.74
2017-01-17T00:08:58.308Z,19.8
2017-01-17T00:09:38.807Z,19.82
2017-01-17T00:10:19.308Z,19.67
2017-01-17T00:10:59.791Z,19.72
2017-01-17T00:11:40.284Z,19.74
2017-01-17T00:12:20.777Z,19.74
2017-01-17T00:13:01.262Z,19.63
2017-01-17T00:13:41.759Z,19.63
2017-01-17T00:14:22.255Z,19.72
2017-01-17T00:15:02.741Z,19.64
2017-01-17T00:15:43.232Z,19.74
2017-01-17T00:16:23.728Z,19.71
2017-01-17T00:17:04.225Z,19.68
2017-01-17T00:17:44.706Z,19.64
2017-01-17T00:18:25.202Z,19.57
2017-01-17T00:19:05.707Z,19.65
2017-01-17T00:19:46.192Z,19.75
2017-01-17T00:20:26.705Z,19.67
2017-01-17T00:21:07.202Z,19.6
2017-01-17T00:21:47.689Z,19.63
2017-01-17T00:22:28.196Z,19.71
2017-01-17T00:23:08.702Z,19.64
2017-01-17T00:23:49.190Z,19.65
2017-01-17T00:24:29.695Z,19.68
2017-01-17T00:25:10.185Z,19.65
2017-01-17T00:25:50.675Z,19.63
2017-01-17T00:26:31.168Z,19.61
2017-01-17T00:27:11.672Z,19.63
2017-01-17T00:27:52.147Z,19.7
2017-01-17T00:28:32.643Z,19.71
2017-01-17T00:29:13.142Z,19.63
2017-01-17T00:29:53.631Z,19.64
2017-01-17T00:30:34.118Z,19.64
2017-01-17T00:31:14.600Z,19.71
2017-01-17T00:31:55.092Z,19.78
2017-01-17T00:32:35.750Z,19.78
2017-01-17T00:33:16.245Z,19.65
2017-01-17T00:33:56.729Z,19.6
2017-01-17T00:34:37.214Z,19.56
2017-01-17T00:35:17.698Z,19.6
2017-01-17T00:35:58.191Z,19.57
2017-01-17T00:36:38.689Z,19.56
2017-01-17T00:37:19.178Z,19.63
2017-01-17T00:37:59.682Z,19.64
2017-01-17T00:38:40.304Z,19.64
2017-01-17T00:39:20.800Z,19.57
2017-01-17T00:40:01.309Z,19.64
2017-01-17T00:40:41.795Z,19.6
2017-01-17T00:41:22.290Z,19.57
2017-01-17T00:42:02.782Z,19.57
2017-01-17T00:42:43.268Z,19.7
2017-01-17T00:43:23.764Z,19.7
2017-01-17T00:44:04.255Z,19.67
2017-01-17T00:44:44.751Z,19.65
2017-01-17T00:45:25.238Z,19.7
2017-01-17T00:46:05.752Z,19.68
2017-01-17T00:46:46.250Z,19.6
2017-01-17T00:47:26.741Z,19.53
2017-01-17T00:48:07.236Z,19.64
2017-01-17T00:48:47.731Z,19.67
2017-01-17T00:49:28.227Z,19.6
2017-01-17T00:50:08.710Z,19.56
2017-01-17T00:50:49.332Z,19.57
2017-01-17T00:51:29.828Z,19.5
2017-01-17T00:52:10.325Z,19.6
2017-01-17T00:52:50.820Z,19.6
2017-01-17T00:53:31.315Z,19.53
2017-01-17T00:54:11.814Z,19.65
2017-01-17T00:54:52.315Z,19.57
2017-01-17T00:55:32.811Z,19.65
2017-01-17T00:56:13.309Z,19.53
2017-01-17T00:56:53.811Z,19.52
2017-01-17T00:57:34.316Z,19.6
2017-01-17T00:58:14.803Z,19.63
2017-01-17T00:58:55.312Z,19.52
2017-01-17T00:59:35.809Z,19.57
2017-01-17T01:00:16.313Z,19.53
2017-01-17T01:00:56.800Z,19.57
2017-01-17T01:01:37.308Z,19.57
2017-01-17T01:02:17.814Z,19.61
2017-01-17T01:02:58.311Z,19.6
2017-01-17T01:03:38.801Z,19.68
2017-01-17T01:04:19.302Z,19.53
2017-01-17T01:04:59.805Z,19.57
2017-01-17T01:05:40.308Z,19.63
2017-01-17T01:06:20.798Z,19.56
2017-01-17T01:07:01.292Z,19.53
2017-01-17T01:07:41.781Z,19.4
2017-01-17T01:08:22.330Z,19.46
2017-01-17T01:09:02.821Z,19.52
2017-01-17T01:09:43.310Z,19.47
2017-01-17T01:10:23.804Z,19.56
2017-01-17T01:11:04.311Z,19.57
2017-01-17T01:11:44.800Z,19.6
2017-01-17T01:12:25.305Z,19.64
2017-01-17T01:13:05.788Z,19.56
2017-01-17T01:13:46.277Z,19.65
2017-01-17T01:14:26.777Z,19.57
2017-01-17T01:15:07.275Z,19.61
2017-01-17T01:15:47.755Z,19.6
2017-01-17T01:16:28.251Z,19.52
2017-01-17T01:17:08.750Z,19.47
2017-01-17T01:17:49.238Z,19.63
2017-01-17T01:18:29.744Z,19.6
2017-01-17T01:19:10.240Z,19.46
2017-01-17T01:19:50.743Z,19.6
2017-01-17T01:20:31.234Z,19.61
2017-01-17T01:21:11.740Z,19.7
2017-01-17T01:21:52.240Z,19.63
2017-01-17T01:22:32.742Z,19.65
2017-01-17T01:23:13.233Z,19.63
2017-01-17T01:23:53.729Z,19.57
2017-01-17T01:24:34.243Z,19.55
2017-01-17T01:25:14.737Z,19.55
2017-01-17T01:25:55.237Z,19.47
2017-01-17T01:26:35.740Z,19.5
2017-01-17T01:27:16.224Z,19.52
2017-01-17T01:27:56.729Z,19.5
2017-01-17T01:28:37.237Z,19.45
2017-01-17T01:29:17.730Z,19.61
2017-01-17T01:29:58.232Z,19.6
2017-01-17T01:30:38.735Z,19.6
2017-01-17T01:31:19.332Z,19.55
2017-01-17T01:31:59.840Z,19.61
2017-01-17T01:32:40.323Z,19.45
2017-01-17T01:33:20.808Z,19.55
2017-01-17T01:34:01.295Z,19.5
2017-01-17T01:34:41.783Z,19.55
2017-01-17T01:35:22.342Z,19.53
2017-01-17T01:36:02.830Z,19.5
2017-01-17T01:36:43.326Z,19.46
2017-01-17T01:37:23.837Z,19.55
2017-01-17T01:38:04.318Z,19.46
2017-01-17T01:38:44.812Z,19.52
2017-01-17T01:39:25.300Z,19.61
2017-01-17T01:40:05.800Z,19.55
2017-01-17T01:40:46.281Z,19.49
2017-01-17T01:41:26.775Z,19.49
2017-01-17T01:42:07.274Z,19.52
2017-01-17T01:42:47.757Z,19.46
2017-01-17T01:43:28.248Z,19.47
2017-01-17T01:44:08.742Z,19.52
2017-01-17T01:44:49.231Z,19.6
2017-01-17T01:45:29.742Z,19.5
2017-01-17T01:46:10.236Z,19.38
2017-01-17T01:46:50.723Z,19.49
2017-01-17T01:47:31.220Z,19.49
2017-01-17T01:48:11.716Z,19.49
2017-01-17T01:48:52.213Z,19.53
2017-01-17T01:49:32.719Z,19.53
2017-01-17T01:50:13.218Z,19.52
2017-01-17T01:50:53.713Z,19.47
2017-01-17T01:51:34.208Z,19.55
2017-01-17T01:52:14.715Z,19.47
2017-01-17T01:52:55.214Z,19.49
2017-01-17T01:53:35.712Z,19.52
2017-01-17T01:54:16.201Z,19.53
2017-01-17T01:56:28.998Z,19.55
2017-01-17T01:57:09.478Z,19.49
2017-01-17T01:57:49.977Z,19.49
2017-01-17T01:58:30.461Z,19.37
2017-01-17T01:59:10.943Z,19.6
2017-01-17T01:59:51.428Z,19.6
2017-01-17T02:00:31.923Z,19.45
2017-01-17T02:01:12.415Z,19.5
2017-01-17T02:01:52.905Z,19.5
2017-01-17T02:02:33.395Z,19.5
2017-01-17T02:03:13.887Z,19.46
2017-01-17T02:03:54.381Z,19.49
2017-01-17T02:04:34.886Z,19.46
2017-01-17T02:05:15.386Z,19.35
2017-01-17T02:05:55.871Z,19.47
2017-01-17T02:06:36.343Z,19.43
2017-01-17T02:07:16.836Z,19.42
2017-01-17T02:07:57.318Z,19.38
2017-01-17T02:08:37.811Z,19.45
2017-01-17T02:09:18.303Z,19.43
2017-01-17T02:09:58.800Z,19.43
2017-01-17T02:10:39.283Z,19.46
2017-01-17T02:11:19.777Z,19.32
2017-01-17T02:12:00.271Z,19.28
2017-01-17T02:12:40.755Z,19.45
2017-01-17T02:13:21.251Z,19.42
2017-01-17T02:14:01.748Z,19.5
2017-01-17T02:14:42.240Z,19.49
2017-01-17T02:15:22.727Z,19.5
2017-01-17T02:16:03.214Z,19.4
2017-01-17T02:16:43.703Z,19.4
2017-01-17T02:17:24.196Z,19.5
2017-01-17T02:18:04.687Z,19.45
2017-01-17T02:18:45.175Z,19.52
2017-01-17T02:19:25.669Z,19.43
2017-01-17T02:20:06.164Z,19.38
2017-01-17T02:20:46.649Z,19.5
2017-01-17T02:21:27.139Z,19.43
2017-01-17T02:22:07.642Z,19.4
2017-01-17T02:22:48.136Z,19.42
2017-01-17T02:23:28.637Z,19.46
2017-01-17T02:24:09.131Z,19.49
2017-01-17T02:24:49.622Z,19.42
2017-01-17T02:25:30.185Z,19.42
2017-01-17T02:26:10.703Z,19.5
2017-01-17T02:26:51.188Z,19.43
2017-01-17T02:27:31.689Z,19.5
2017-01-17T02:28:12.180Z,19.4
2017-01-17T02:28:52.665Z,19.49
2017-01-17T02:29:33.286Z,19.61
2017-01-17T02:30:13.776Z,19.49
2017-01-17T02:30:54.265Z,19.55
2017-01-17T02:31:34.770Z,19.47
2017-01-17T02:32:15.258Z,19.53
2017-01-17T02:32:55.735Z,19.46
2017-01-17T02:33:36.225Z,19.52
2017-01-17T02:34:16.724Z,19.56
2017-01-17T02:34:57.227Z,19.52
2017-01-17T02:35:37.725Z,19.55
2017-01-17T02:36:18.219Z,19.52
2017-01-17T02:36:58.707Z,19.56
2017-01-17T02:37:39.191Z,19.47
2017-01-17T02:38:19.683Z,19.42
2017-01-17T02:39:00.178Z,19.37
2017-01-17T02:39:40.678Z,19.37
2017-01-17T02:40:21.176Z,19.46
2017-01-17T02:41:01.669Z,19.46
2017-01-17T02:41:42.175Z,19.42
2017-01-17T02:42:22.666Z,19.43
2017-01-17T02:43:03.148Z,19.42
2017-01-17T02:43:43.635Z,19.34
2017-01-17T02:44:24.114Z,19.42
2017-01-17T02:45:04.602Z,19.47
2017-01-17T02:45:45.126Z,19.42
2017-01-17T02:46:25.619Z,19.43
2017-01-17T02:47:06.118Z,19.46
2017-01-17T02:47:46.616Z,19.4
2017-01-17T02:48:27.100Z,19.45
2017-01-17T02:49:07.591Z,19.49
2017-01-17T02:49:48.075Z,19.45
2017-01-17T02:50:28.891Z,19.5
2017-01-17T02:51:09.370Z,19.42
2017-01-17T02:51:49.860Z,19.4
2017-01-17T02:52:30.376Z,19.42
2017-01-17T02:53:11.271Z,19.42
2017-01-17T02:53:51.753Z,19.43
2017-01-17T02:54:32.241Z,19.47
2017-01-17T02:55:12.730Z,19.52
2017-01-17T02:55:53.225Z,19.38
2017-01-17T02:56:33.719Z,19.42
2017-01-17T02:57:14.213Z,19.42
2017-01-17T02:57:54.726Z,19.46
2017-01-17T02:58:35.230Z,19.46
2017-01-17T02:59:15.711Z,19.43
2017-01-17T02:59:56.227Z,19.24
2017-01-17T03:00:36.717Z,19.38
2017-01-17T03:01:17.219Z,19.55
2017-01-17T03:01:57.712Z,19.49
2017-01-17T03:02:38.217Z,19.49
2017-01-17T03:03:18.704Z,19.53
2017-01-17T03:03:59.190Z,19.45
2017-01-17T03:04:39.679Z,19.52
2017-01-17T03:05:20.166Z,19.5
2017-01-17T03:06:00.663Z,19.45
2017-01-17T03:06:41.139Z,19.56
2017-01-17T03:07:21.634Z,19.6
2017-01-17T03:08:02.122Z,19.42
2017-01-17T03:08:42.614Z,19.45
2017-01-17T03:09:23.102Z,19.52
2017-01-17T03:10:03.613Z,19.49
2017-01-17T03:10:44.107Z,19.46
2017-01-17T03:11:24.587Z,19.4
2017-01-17T03:12:05.078Z,19.42
2017-01-17T03:12:45.560Z,19.4
2017-01-17T03:13:26.041Z,19.52
2017-01-17T03:14:06.531Z,19.49
2017-01-17T03:14:47.028Z,19.53
2017-01-17T03:15:27.527Z,19.45
2017-01-17T03:16:08.002Z,19.49
2017-01-17T03:16:48.487Z,19.52
2017-01-17T03:17:28.975Z,19.65
2017-01-17T03:18:09.471Z,19.61
2017-01-17T03:18:49.965Z,19.61
2017-01-17T03:19:30.451Z,19.56
2017-01-17T03:20:10.945Z,19.46
2017-01-17T03:20:51.445Z,19.52
2017-01-17T03:21:31.949Z,19.64
2017-01-17T03:22:12.440Z,19.5
2017-01-17T03:22:52.921Z,19.47
2017-01-17T03:23:33.416Z,19.52
2017-01-17T03:24:13.903Z,19.55
2017-01-17T03:24:54.408Z,19.57
2017-01-17T03:25:34.877Z,19.57
2017-01-17T03:26:15.390Z,19.53
2017-01-17T03:26:55.893Z,19.55
2017-01-17T03:27:36.371Z,19.63
2017-01-17T03:28:16.862Z,19.55
2017-01-17T03:28:57.343Z,19.52
2017-01-17T03:29:37.837Z,19.47
2017-01-17T03:30:18.326Z,19.52
2017-01-17T03:30:58.808Z,19.57
2017-01-17T03:31:39.300Z,19.49
2017-01-17T03:32:19.790Z,19.55
2017-01-17T03:33:00.281Z,19.46
2017-01-17T03:33:40.781Z,19.43
2017-01-17T03:34:21.269Z,19.4
2017-01-17T03:35:01.779Z,19.49
2017-01-17T03:35:42.274Z,19.46
2017-01-17T03:36:22.778Z,19.52
2017-01-17T03:37:03.274Z,19.5
2017-01-17T03:37:43.777Z,19.55
2017-01-17T03:38:24.264Z,19.55
2017-01-17T03:39:04.767Z,19.6
2017-01-17T03:39:45.278Z,19.64
2017-01-17T03:40:25.914Z,19.49
2017-01-17T03:41:06.401Z,19.46
2017-01-17T03:41:46.882Z,19.4
2017-01-17T03:42:27.381Z,19.47
2017-01-17T03:43:07.867Z,19.53
2017-01-17T03:43:48.371Z,19.6
2017-01-17T03:44:28.874Z,19.52
2017-01-17T03:45:09.364Z,19.49
2017-01-17T03:45:49.858Z,19.53
2017-01-17T03:46:30.345Z,19.42
2017-01-17T03:47:10.845Z,19.46
2017-01-17T03:47:51.319Z,19.55
2017-01-17T03:48:31.815Z,19.47
2017-01-17T03:49:12.316Z,19.52
2017-01-17T03:49:52.799Z,19.46
2017-01-17T03:50:33.290Z,19.42
2017-01-17T03:51:13.773Z,19.5
2017-01-17T03:51:54.264Z,19.46
2017-01-17T03:52:34.760Z,19.4
2017-01-17T03:53:15.257Z,19.42
2017-01-17T03:53:55.767Z,19.45
2017-01-17T03:54:36.260Z,19.63
2017-01-17T03:55:16.765Z,19.6
2017-01-17T03:55:57.259Z,19.55
2017-01-17T03:56:37.761Z,19.4
2017-01-17T03:57:18.252Z,19.43
2017-01-17T03:57:58.756Z,19.43
2017-01-17T03:58:39.251Z,19.42
2017-01-17T03:59:19.737Z,19.47
2017-01-17T04:00:00.223Z,19.42
2017-01-17T04:00:40.733Z,19.42
2017-01-17T04:01:21.214Z,19.49
2017-01-17T04:02:01.707Z,19.52
2017-01-17T04:02:42.196Z,19.43
2017-01-17T04:03:22.698Z,19.46
2017-01-17T04:04:03.202Z,19.43
2017-01-17T04:04:43.693Z,19.45
2017-01-17T04:05:24.199Z,19.38
2017-01-17T04:06:04.676Z,19.42
2017-01-17T04:08:17.589Z,19.56
2017-01-17T04:08:58.084Z,19.46
2017-01-17T04:09:38.575Z,19.45
2017-01-17T04:10:19.066Z,19.45
2017-01-17T04:10:59.552Z,19.53
2017-01-17T04:11:40.048Z,19.42
2017-01-17T04:12:20.536Z,19.5
2017-01-17T04:13:01.020Z,19.47
2017-01-17T04:13:41.516Z,19.52
2017-01-17T04:14:22.007Z,19.43
2017-01-17T04:15:02.498Z,19.37
2017-01-17T04:15:43.003Z,19.42
2017-01-17T04:16:23.506Z,19.45
2017-01-17T04:17:03.998Z,19.45
2017-01-17T04:17:44.505Z,19.45
2017-01-17T04:18:24.999Z,19.49
2017-01-17T04:19:05.481Z,19.52
2017-01-17T04:19:45.974Z,19.46
2017-01-17T04:20:26.458Z,19.45
2017-01-17T04:21:06.952Z,19.5
2017-01-17T04:21:47.450Z,19.6
2017-01-17T04:22:27.940Z,19.6
2017-01-17T04:23:08.424Z,19.61
2017-01-17T04:23:48.911Z,19.61
2017-01-17T04:24:29.397Z,19.64
2017-01-17T04:25:09.893Z,19.49
2017-01-17T04:25:50.386Z,19.46
2017-01-17T04:26:30.868Z,19.57
2017-01-17T04:27:11.361Z,19.49
2017-01-17T04:27:51.871Z,19.37
2017-01-17T04:28:32.353Z,19.47
2017-01-17T04:29:12.845Z,19.46
2017-01-17T04:29:53.339Z,19.5
2017-01-17T04:30:33.830Z,19.45
2017-01-17T04:31:14.335Z,19.55
2017-01-17T04:31:54.829Z,19.57
2017-01-17T04:32:35.333Z,19.52
2017-01-17T04:33:15.819Z,19.57
2017-01-17T04:33:56.308Z,19.45
2017-01-17T04:34:36.791Z,19.53
2017-01-17T04:35:17.287Z,19.63
2017-01-17T04:35:57.769Z,19.49
2017-01-17T04:36:38.274Z,19.57
2017-01-17T04:37:18.773Z,19.47
2017-01-17T04:37:59.270Z,19.49
2017-01-17T04:38:39.758Z,19.43
2017-01-17T04:39:20.252Z,19.46
2017-01-17T04:40:00.749Z,19.4
2017-01-17T04:40:41.231Z,19.43
2017-01-17T04:41:21.725Z,19.4
2017-01-17T04:42:02.227Z,19.35
2017-01-17T04:42:42.713Z,19.34
2017-01-17T04:43:23.202Z,19.43
2017-01-17T04:44:03.678Z,19.42
2017-01-17T04:44:44.166Z,19.37
2017-01-17T04:45:24.668Z,19.45
2017-01-17T04:46:05.158Z,19.42
2017-01-17T04:46:45.650Z,19.42
2017-01-17T04:47:26.131Z,19.46
2017-01-17T04:48:06.625Z,19.46
2017-01-17T04:48:47.115Z,19.4
2017-01-17T04:49:27.605Z,19.55
2017-01-17T04:50:08.093Z,19.47
2017-01-17T04:50:48.588Z,19.52
2017-01-17T04:51:29.082Z,19.55
2017-01-17T04:52:09.566Z,19.49
2017-01-17T04:52:50.064Z,19.53
2017-01-17T04:53:30.564Z,19.45
2017-01-17T04:54:11.063Z,19.5
2017-01-17T04:54:51.561Z,19.47
2017-01-17T04:55:32.057Z,19.5
2017-01-17T04:56:12.553Z,19.43
2017-01-17T04:56:53.045Z,19.38
2017-01-17T04:57:33.537Z,19.49
2017-01-17T04:58:14.031Z,19.47
2017-01-17T04:58:54.524Z,19.42
2017-01-17T04:59:35.016Z,19.42
2017-01-17T05:00:15.510Z,19.4
2017-01-17T05:00:55.999Z,19.27
2017-01-17T05:01:36.501Z,19.24
2017-01-17T05:02:17.006Z,19.32
2017-01-17T05:02:57.504Z,19.34
2017-01-17T05:03:37.979Z,19.27
2017-01-17T05:04:18.464Z,19.35
2017-01-17T05:04:58.955Z,19.32
2017-01-17T05:05:39.450Z,19.28
2017-01-17T05:06:19.939Z,19.45
2017-01-17T05:07:00.448Z,19.4
2017-01-17T05:07:40.932Z,19.4
2017-01-17T05:08:21.420Z,19.5
2017-01-17T05:09:01.902Z,19.5
2017-01-17T05:09:42.395Z,19.46
2017-01-17T05:10:23.783Z,19.38
2017-01-17T05:11:03.367Z,19.46
2017-01-17T05:11:43.860Z,19.43
2017-01-17T05:12:24.345Z,19.35
2017-01-17T05:13:04.870Z,19.35
2017-01-17T05:13:45.370Z,19.37
2017-01-17T05:14:25.866Z,19.34
2017-01-17T05:15:06.344Z,19.43
2017-01-17T05:15:46.840Z,19.31
2017-01-17T05:16:27.337Z,19.37
2017-01-17T05:17:07.829Z,19.4
2017-01-17T05:17:48.315Z,19.38
2017-01-17T05:18:28.807Z,19.25
2017-01-17T05:19:09.309Z,19.2
2017-01-17T05:19:49.926Z,19.34
2017-01-17T05:20:30.419Z,19.34
2017-01-17T05:21:10.910Z,19.25
2017-01-17T05:21:51.401Z,19.43
2017-01-17T05:22:31.884Z,19.43
2017-01-17T05:23:12.380Z,19.46
2017-01-17T05:23:52.879Z,19.38
2017-01-17T05:24:33.366Z,19.24
2017-01-17T05:25:13.855Z,19.46
2017-01-17T05:25:54.354Z,19.42
2017-01-17T05:26:35.032Z,19.4
2017-01-17T05:27:15.480Z,19.38
2017-01-17T05:27:55.977Z,19.24
2017-01-17T05:28:36.472Z,19.23
2017-01-17T05:29:16.974Z,19.35
2017-01-17T05:29:57.534Z,19.27
2017-01-17T05:30:38.028Z,19.37
2017-01-17T05:31:18.525Z,19.37
2017-01-17T05:31:59.011Z,19.27
2017-01-17T05:32:39.503Z,19.2
2017-01-17T05:33:20.001Z,19.34
2017-01-17T05:34:00.494Z,19.25
2017-01-17T05:34:40.977Z,19.3
2017-01-17T05:35:21.469Z,19.28
2017-01-17T05:36:01.976Z,19.19
2017-01-17T05:36:42.452Z,19.25
2017-01-17T05:37:22.941Z,19.25
2017-01-17T05:38:03.432Z,19.31
2017-01-17T05:38:43.925Z,19.49
2017-01-17T05:39:24.419Z,19.46
2017-01-17T05:40:04.910Z,19.42
2017-01-17T05:40:45.407Z,19.4
2017-01-17T05:41:25.915Z,19.31
2017-01-17T05:42:06.414Z,19.42
2017-01-17T05:42:46.913Z,19.42
2017-01-17T05:43:27.426Z,19.38
2017-01-17T05:44:07.900Z,19.35
2017-01-17T05:44:48.392Z,19.28
2017-01-17T05:45:28.887Z,19.31
2017-01-17T05:46:09.373Z,19.2
2017-01-17T05:46:49.859Z,19.28
2017-01-17T05:47:30.348Z,19.34
2017-01-17T05:48:10.833Z,19.46
2017-01-17T05:48:51.331Z,19.27
2017-01-17T05:49:31.808Z,19.3
2017-01-17T05:50:12.303Z,19.27
2017-01-17T05:50:52.794Z,19.32
2017-01-17T05:51:33.285Z,19.2
2017-01-17T05:52:13.776Z,19.3
2017-01-17T05:52:54.277Z,19.42
2017-01-17T05:53:34.756Z,19.43
2017-01-17T05:54:15.246Z,19.46
2017-01-17T05:54:55.751Z,19.4
2017-01-17T05:55:36.233Z,19.45
2017-01-17T05:56:16.722Z,19.38
2017-01-17T05:56:57.208Z,19.35
2017-01-17T05:57:37.699Z,19.2
2017-01-17T05:58:18.194Z,19.25
2017-01-17T05:58:58.675Z,19.35
2017-01-17T05:59:39.164Z,19.32
2017-01-17T06:00:19.667Z,19.27
2017-01-17T06:01:00.168Z,19.34
2017-01-17T06:01:40.652Z,19.45
2017-01-17T06:02:21.202Z,19.27
2017-01-17T06:03:01.697Z,19.24
2017-01-17T06:03:42.192Z,19.28
2017-01-17T06:04:22.685Z,19.35
2017-01-17T06:05:03.195Z,19.38
2017-01-17T06:05:43.690Z,19.3
2017-01-17T06:06:24.198Z,19.19
2017-01-17T06:07:04.694Z,19.27
2017-01-17T06:07:45.186Z,19.3
2017-01-17T06:08:25.681Z,19.27
2017-01-17T06:09:06.164Z,19.37
2017-01-17T06:09:46.647Z,19.28
2017-01-17T06:10:27.140Z,19.24
2017-01-17T06:11:07.639Z,19.25
2017-01-17T06:11:48.119Z,19.27
2017-01-17T06:12:28.608Z,19.24
2017-01-17T06:13:09.096Z,19.23
2017-01-17T06:13:49.606Z,19.25
2017-01-17T06:14:30.083Z,19.32
2017-01-17T06:15:10.582Z,19.34
2017-01-17T06:15:51.066Z,19.37
2017-01-17T06:16:31.562Z,19.28
2017-01-17T06:17:12.051Z,19.24
2017-01-17T06:17:52.530Z,19.25
2017-01-17T06:18:33.030Z,19.19
2017-01-17T06:19:13.606Z,19.2
2017-01-17T06:19:54.112Z,19.17
2017-01-17T06:20:34.601Z,19.19
2017-01-17T06:21:15.090Z,19.32
2017-01-17T06:21:55.591Z,19.24
2017-01-17T06:22:36.074Z,19.2
2017-01-17T06:23:16.563Z,19.38
2017-01-17T06:23:57.051Z,19.2
2017-01-17T06:24:37.531Z,19.27
2017-01-17T06:25:18.047Z,19.32
2017-01-17T06:25:58.529Z,19.34
2017-01-17T06:26:39.038Z,19.24
2017-01-17T06:27:19.520Z,19.28
2017-01-17T06:28:00.001Z,19.27
2017-01-17T06:28:40.491Z,19.23
2017-01-17T06:29:20.978Z,19.15
2017-01-17T06:30:01.491Z,19.13
2017-01-17T06:30:41.971Z,19.19
2017-01-17T06:31:22.464Z,19.23
2017-01-17T06:32:02.957Z,19.2
2017-01-17T06:32:43.449Z,19.23
2017-01-17T06:33:23.940Z,19.32
2017-01-17T06:34:04.427Z,19.37
2017-01-17T06:34:44.933Z,19.25
2017-01-17T06:35:25.419Z,19.25
2017-01-17T06:36:05.908Z,19.27
2017-01-17T06:36:46.398Z,19.23
2017-01-17T06:37:26.905Z,19.25
2017-01-17T06:38:07.401Z,19.4
2017-01-17T06:38:47.890Z,19.31
2017-01-17T06:39:28.375Z,19.34
2017-01-17T06:40:08.856Z,19.28
2017-01-17T06:40:49.354Z,19.35
2017-01-17T06:41:29.849Z,19.37
2017-01-17T06:42:10.323Z,19.38
2017-01-17T06:42:50.832Z,19.32
2017-01-17T06:43:31.307Z,19.24
2017-01-17T06:44:11.801Z,19.27
2017-01-17T06:44:52.294Z,19.28
2017-01-17T06:45:32.791Z,19.34
2017-01-17T06:46:13.291Z,19.23
2017-01-17T06:46:53.787Z,19.16
2017-01-17T06:47:34.283Z,19.17
2017-01-17T06:48:14.782Z,19.32
2017-01-17T06:48:55.269Z,19.32
2017-01-17T06:49:35.784Z,19.35
2017-01-17T06:50:16.279Z,19.31
2017-01-17T06:50:56.781Z,19.32
2017-01-17T06:51:37.264Z,19.25
2017-01-17T06:52:17.760Z,19.23
2017-01-17T06:52:58.253Z,19.17
2017-01-17T06:53:38.735Z,19.07
2017-01-17T06:54:19.223Z,19.25
2017-01-17T06:54:59.711Z,19.17
2017-01-17T06:55:40.206Z,19.2
2017-01-17T06:56:20.702Z,19.19
2017-01-17T06:57:01.187Z,19.17
2017-01-17T06:57:41.682Z,19.2
2017-01-17T06:58:22.181Z,19.27
2017-01-17T06:59:02.671Z,19.25
2017-01-17T06:59:43.159Z,19.15
2017-01-17T07:00:23.652Z,19.25
2017-01-17T07:01:04.152Z,19.35
2017-01-17T07:01:44.643Z,19.31
2017-01-17T07:02:25.147Z,19.23
2017-01-17T07:03:05.640Z,19.25
2017-01-17T07:03:46.127Z,19.23
2017-01-17T07:04:26.624Z,19.27
2017-01-17T07:05:07.111Z,19.23
2017-01-17T07:05:47.608Z,19.24
2017-01-17T07:06:28.121Z,19.17
2017-01-17T07:07:08.611Z,19.2
2017-01-17T07:07:49.113Z,19.27
2017-01-17T07:08:29.615Z,19.24
2017-01-17T07:09:10.117Z,19.3
2017-01-17T07:09:50.619Z,19.24
2017-01-17T07:10:31.115Z,19.34
2017-01-17T07:11:11.619Z,19.28
2017-01-17T07:11:52.112Z,19.34
2017-01-17T07:12:32.625Z,19.28
2017-01-17T07:13:13.104Z,19.32
2017-01-17T07:13:53.614Z,19.27
2017-01-17T07:14:34.104Z,19.27
2017-01-17T07:15:14.606Z,19.27
2017-01-17T07:17:12.315Z,19.25
2017-01-17T07:17:52.795Z,19.2
2017-01-17T07:18:33.294Z,19.35
2017-01-17T07:19:13.788Z,19.28
2017-01-17T07:19:54.275Z,19.28
2017-01-17T07:20:34.771Z,19.35
2017-01-17T07:21:15.267Z,19.4
2017-01-17T07:21:55.764Z,19.34
2017-01-17T07:22:36.262Z,19.4
2017-01-17T07:23:16.783Z,19.37
2017-01-17T07:23:57.275Z,19.34
2017-01-17T07:24:37.754Z,19.35
2017-01-17T07:25:18.289Z,19.34
2017-01-17T07:25:58.790Z,19.4
2017-01-17T07:26:39.284Z,19.42
2017-01-17T07:27:19.782Z,19.38
2017-01-17T07:28:00.296Z,19.37
2017-01-17T07:28:40.787Z,19.35
2017-01-17T07:29:21.266Z,19.43
2017-01-17T07:30:01.752Z,19.46
2017-01-17T07:30:42.250Z,19.46
2017-01-17T07:31:22.734Z,19.49
2017-01-17T07:32:03.233Z,19.52
2017-01-17T07:32:43.722Z,19.45
2017-01-17T07:33:24.222Z,19.5
2017-01-17T07:34:04.715Z,19.43
2017-01-17T07:34:45.208Z,19.38
2017-01-17T07:35:25.691Z,19.35
2017-01-17T07:36:06.235Z,19.47
2017-01-17T07:36:46.720Z,19.43
2017-01-17T07:37:27.228Z,19.5
2017-01-17T07:38:07.709Z,19.35
2017-01-17T07:38:48.359Z,19.42
2017-01-17T07:39:28.851Z,19.42
2017-01-17T07:40:09.363Z,19.35
2017-01-17T07:40:49.853Z,19.42
2017-01-17T07:41:30.350Z,19.4
2017-01-17T07:42:10.844Z,19.43
2017-01-17T07:42:51.324Z,19.43
2017-01-17T07:43:31.814Z,19.55
2017-01-17T07:44:12.314Z,19.61
2017-01-17T07:44:52.804Z,19.45
2017-01-17T07:45:33.298Z,19.49
2017-01-17T07:46:13.788Z,19.47
2017-01-17T07:46:54.278Z,19.5
2017-01-17T07:47:34.771Z,19.49
2017-01-17T07:48:15.253Z,19.53
2017-01-17T07:48:55.745Z,19.5
2017-01-17T07:49:36.235Z,19.42
2017-01-17T07:50:16.738Z,19.42
2017-01-17T07:50:57.233Z,19.49
2017-01-17T07:51:37.728Z,19.53
2017-01-17T07:52:18.213Z,19.47
2017-01-17T07:52:58.702Z,19.47
2017-01-17T07:53:39.189Z,19.47
2017-01-17T07:54:19.687Z,19.5
2017-01-17T07:55:00.160Z,19.52
2017-01-17T07:55:40.654Z,19.37
2017-01-17T07:56:21.139Z,19.5
2017-01-17T07:57:01.633Z,19.6
2017-01-17T07:57:42.126Z,19.52
2017-01-17T07:58:22.620Z,19.55
2017-01-17T07:59:03.106Z,19.63
2017-01-17T07:59:43.588Z,19.6
2017-01-17T08:00:24.078Z,19.56
2017-01-17T08:01:04.567Z,19.63
2017-01-17T08:01:45.060Z,19.52
2017-01-17T08:02:25.552Z,19.52
2017-01-17T08:03:06.042Z,19.64
2017-01-17T08:03:46.548Z,19.6
2017-01-17T08:04:27.064Z,19.64
2017-01-17T08:05:07.553Z,19.63
2017-01-17T08:05:48.041Z,19.61
2017-01-17T08:06:28.543Z,19.53
2017-01-17T08:07:09.025Z,19.47
2017-01-17T08:07:49.501Z,19.56
2017-01-17T08:08:29.992Z,19.57
2017-01-17T08:09:10.489Z,19.6
2017-01-17T08:09:50.990Z,19.63
2017-01-17T08:10:31.480Z,19.65
2017-01-17T08:11:11.988Z,19.53
2017-01-17T08:11:52.515Z,19.64
2017-01-17T08:12:33.315Z,19.63
2017-01-17T08:13:14.113Z,19.63
2017-01-17T08:13:54.906Z,19.61
2017-01-17T08:14:35.669Z,19.7
2017-01-17T08:15:16.888Z,19.75
2017-01-17T08:15:57.835Z,19.67
2017-01-17T08:16:38.773Z,19.61
2017-01-17T08:17:19.835Z,19.7
2017-01-17T08:18:00.947Z,19.75
2017-01-17T08:18:42.055Z,19.74
2017-01-17T08:19:22.798Z,19.67
2017-01-17T08:20:03.675Z,19.71
2017-01-17T08:20:44.368Z,19.65
2017-01-17T08:21:24.890Z,19.85
2017-01-17T08:22:05.378Z,19.75
2017-01-17T08:22:45.877Z,19.72
2017-01-17T08:23:26.363Z,19.72
2017-01-17T08:24:06.840Z,19.71
2017-01-17T08:24:47.328Z,19.7
2017-01-17T08:25:27.814Z,19.68
2017-01-17T08:26:08.337Z,19.8
2017-01-17T08:26:48.827Z,19.78
2017-01-17T08:27:29.328Z,19.7
2017-01-17T08:28:09.821Z,19.82
2017-01-17T08:28:50.321Z,19.89
2017-01-17T08:29:30.830Z,19.72
2017-01-17T08:30:11.324Z,19.72
2017-01-17T08:30:51.808Z,19.75
2017-01-17T08:31:32.298Z,19.71
2017-01-17T08:32:12.790Z,19.87
2017-01-17T08:32:53.286Z,19.87
2017-01-17T08:33:33.794Z,19.75
2017-01-17T08:34:14.293Z,19.72
2017-01-17T08:34:54.770Z,19.83
2017-01-17T08:35:35.261Z,19.67
2017-01-17T08:36:15.765Z,19.74
2017-01-17T08:36:56.266Z,19.79
2017-01-17T08:37:36.760Z,19.83
2017-01-17T08:38:17.257Z,19.87
2017-01-17T08:38:57.766Z,19.97
2017-01-17T08:39:38.249Z,20
2017-01-17T08:40:18.736Z,19.9
2017-01-17T08:40:59.220Z,20.04
2017-01-17T08:41:39.712Z,20.05
2017-01-17T08:42:20.208Z,20.04
2017-01-17T08:43:00.691Z,19.92
2017-01-17T08:43:41.185Z,19.86
2017-01-17T08:44:21.668Z,19.93
2017-01-17T08:45:02.156Z,19.98
2017-01-17T08:45:42.648Z,19.97
2017-01-17T08:46:23.141Z,19.92
2017-01-17T08:47:03.629Z,20.01
2017-01-17T08:47:44.115Z,20
2017-01-17T08:48:24.626Z,20.02